sensor_id;sensor_type;location;lat;lon;timestamp;temperature;humidity
4566;DHT22;2295;51.050;14.608;2023-06-04T00:02:04;4.60;99.90
4566;DHT22;2295;51.050;14.608;2023-06-04T00:04:34;4.60;99.90
4566;DHT22;2295;51.050;14.608;2023-06-04T00:07:05;4.60;99.90
4566;DHT22;2295;51.050;14.608;2023-06-04T00:09:33;4.50;99.90
4566;DHT22;2295;51.050;14.608;2023-06-04T00:12:02;4.50;99.90
4566;DHT22;2295;51.050;14.608;2023-06-04T00:14:30;4.50;99.90
4566;DHT22;2295;51.050;14.608;2023-06-04T00:16:59;4.50;99.90
4566;DHT22;2295;51.050;14.608;2023-06-04T00:19:27;4.40;99.90
4566;DHT22;2295;51.050;14.608;2023-06-04T00:21:57;4.40;99.90
4566;DHT22;2295;51.050;14.608;2023-06-04T00:24:25;4.40;99.90
4566;DHT22;2295;51.050;14.608;2023-06-04T00:26:53;4.40;99.90
4566;DHT22;2295;51.050;14.608;2023-06-04T00:29:21;4.50;99.90
4566;DHT22;2295;51.050;14.608;2023-06-04T00:31:50;4.50;99.90
4566;DHT22;2295;51.050;14.608;2023-06-04T00:34:18;4.50;99.90
4566;DHT22;2295;51.050;14.608;2023-06-04T00:36:46;4.40;99.90
4566;DHT22;2295;51.050;14.608;2023-06-04T00:39:16;4.40;99.90
4566;DHT22;2295;51.050;14.608;2023-06-04T00:41:44;4.30;99.90
4566;DHT22;2295;51.050;14.608;2023-06-04T00:44:12;4.30;99.90
4566;DHT22;2295;51.050;14.608;2023-06-04T00:46:41;4.20;99.90
4566;DHT22;2295;51.050;14.608;2023-06-04T00:49:12;4.20;99.90
4566;DHT22;2295;51.050;14.608;2023-06-04T00:51:40;4.20;99.90
4566;DHT22;2295;51.050;14.608;2023-06-04T00:54:09;4.30;99.90
4566;DHT22;2295;51.050;14.608;2023-06-04T00:56:40;4.30;99.90
4566;DHT22;2295;51.050;14.608;2023-06-04T00:59:09;4.30;99.90
4566;DHT22;2295;51.050;14.608;2023-06-04T01:01:42;4.20;99.90
4566;DHT22;2295;51.050;14.608;2023-06-04T01:04:18;4.10;99.90
4566;DHT22;2295;51.050;14.608;2023-06-04T01:06:50;4.00;99.90
4566;DHT22;2295;51.050;14.608;2023-06-04T01:09:19;4.00;99.90
4566;DHT22;2295;51.050;14.608;2023-06-04T01:11:49;3.90;99.90
4566;DHT22;2295;51.050;14.608;2023-06-04T01:14:17;3.90;99.90
4566;DHT22;2295;51.050;14.608;2023-06-04T01:16:49;3.80;99.90
4566;DHT22;2295;51.050;14.608;2023-06-04T01:19:37;3.80;99.90
4566;DHT22;2295;51.050;14.608;2023-06-04T01:22:18;3.80;99.90
4566;DHT22;2295;51.050;14.608;2023-06-04T01:24:53;3.70;99.90
4566;DHT22;2295;51.050;14.608;2023-06-04T01:27:25;3.60;99.90
4566;DHT22;2295;51.050;14.608;2023-06-04T01:29:54;3.60;99.90
4566;DHT22;2295;51.050;14.608;2023-06-04T01:32:24;3.60;99.90
4566;DHT22;2295;51.050;14.608;2023-06-04T01:34:53;3.60;99.90
4566;DHT22;2295;51.050;14.608;2023-06-04T01:37:22;3.50;99.90
4566;DHT22;2295;51.050;14.608;2023-06-04T01:39:50;3.50;99.90
4566;DHT22;2295;51.050;14.608;2023-06-04T01:42:18;3.40;99.90
4566;DHT22;2295;51.050;14.608;2023-06-04T01:44:48;3.40;99.90
4566;DHT22;2295;51.050;14.608;2023-06-04T01:47:17;3.50;99.90
4566;DHT22;2295;51.050;14.608;2023-06-04T01:49:45;3.50;99.90
4566;DHT22;2295;51.050;14.608;2023-06-04T01:52:14;3.50;99.90
4566;DHT22;2295;51.050;14.608;2023-06-04T01:54:43;3.40;99.90
4566;DHT22;2295;51.050;14.608;2023-06-04T01:57:11;3.40;99.90
4566;DHT22;2295;51.050;14.608;2023-06-04T01:59:39;3.30;99.90
4566;DHT22;2295;51.050;14.608;2023-06-04T02:02:10;3.30;99.90
4566;DHT22;2295;51.050;14.608;2023-06-04T02:04:38;3.30;99.90
4566;DHT22;2295;51.050;14.608;2023-06-04T02:07:08;3.30;99.90
4566;DHT22;2295;51.050;14.608;2023-06-04T02:09:37;3.40;99.90
4566;DHT22;2295;51.050;14.608;2023-06-04T02:12:06;3.40;99.90
4566;DHT22;2295;51.050;14.608;2023-06-04T02:14:34;3.30;99.90
4566;DHT22;2295;51.050;14.608;2023-06-04T02:17:04;3.20;99.90
4566;DHT22;2295;51.050;14.608;2023-06-04T02:19:41;3.10;99.90
4566;DHT22;2295;51.050;14.608;2023-06-04T02:22:11;3.10;99.90
4566;DHT22;2295;51.050;14.608;2023-06-04T02:27:09;3.00;99.90
4566;DHT22;2295;51.050;14.608;2023-06-04T02:29:39;3.00;99.90
4566;DHT22;2295;51.050;14.608;2023-06-04T02:32:08;3.00;99.90
4566;DHT22;2295;51.050;14.608;2023-06-04T02:34:36;3.00;99.90
4566;DHT22;2295;51.050;14.608;2023-06-04T02:37:06;3.00;99.90
4566;DHT22;2295;51.050;14.608;2023-06-04T02:39:35;3.00;99.90
4566;DHT22;2295;51.050;14.608;2023-06-04T02:42:04;3.00;99.90
4566;DHT22;2295;51.050;14.608;2023-06-04T02:44:32;3.00;99.90
4566;DHT22;2295;51.050;14.608;2023-06-04T02:47:01;3.00;99.90
4566;DHT22;2295;51.050;14.608;2023-06-04T02:49:29;2.90;99.90
4566;DHT22;2295;51.050;14.608;2023-06-04T02:51:57;2.80;99.90
4566;DHT22;2295;51.050;14.608;2023-06-04T02:54:27;2.80;99.90
4566;DHT22;2295;51.050;14.608;2023-06-04T02:56:55;2.80;99.90
4566;DHT22;2295;51.050;14.608;2023-06-04T02:59:24;2.80;99.90
4566;DHT22;2295;51.050;14.608;2023-06-04T03:01:52;2.80;99.90
4566;DHT22;2295;51.050;14.608;2023-06-04T03:04:21;2.80;99.90
4566;DHT22;2295;51.050;14.608;2023-06-04T03:06:49;2.80;99.90
4566;DHT22;2295;51.050;14.608;2023-06-04T03:09:24;2.80;99.90
4566;DHT22;2295;51.050;14.608;2023-06-04T03:11:53;2.80;99.90
4566;DHT22;2295;51.050;14.608;2023-06-04T03:14:22;2.80;99.90
4566;DHT22;2295;51.050;14.608;2023-06-04T03:16:50;2.80;99.90
4566;DHT22;2295;51.050;14.608;2023-06-04T03:19:19;2.90;99.90
4566;DHT22;2295;51.050;14.608;2023-06-04T03:21:47;2.90;99.90
4566;DHT22;2295;51.050;14.608;2023-06-04T03:24:19;3.00;99.90
4566;DHT22;2295;51.050;14.608;2023-06-04T03:26:47;3.00;99.90
4566;DHT22;2295;51.050;14.608;2023-06-04T03:29:17;2.90;99.90
4566;DHT22;2295;51.050;14.608;2023-06-04T03:31:45;2.90;99.90
4566;DHT22;2295;51.050;14.608;2023-06-04T03:34:13;3.00;99.90
4566;DHT22;2295;51.050;14.608;2023-06-04T03:36:42;3.00;99.90
4566;DHT22;2295;51.050;14.608;2023-06-04T03:39:10;3.10;99.90
4566;DHT22;2295;51.050;14.608;2023-06-04T03:41:38;3.00;99.90
4566;DHT22;2295;51.050;14.608;2023-06-04T03:44:07;3.10;99.90
4566;DHT22;2295;51.050;14.608;2023-06-04T03:46:36;3.10;99.90
4566;DHT22;2295;51.050;14.608;2023-06-04T03:49:05;3.20;99.90
4566;DHT22;2295;51.050;14.608;2023-06-04T03:51:33;3.20;99.90
4566;DHT22;2295;51.050;14.608;2023-06-04T03:54:02;3.30;99.90
4566;DHT22;2295;51.050;14.608;2023-06-04T03:56:30;3.40;99.90
4566;DHT22;2295;51.050;14.608;2023-06-04T03:58:59;3.40;99.90
4566;DHT22;2295;51.050;14.608;2023-06-04T04:01:27;3.50;99.90
4566;DHT22;2295;51.050;14.608;2023-06-04T04:03:58;3.60;99.90
4566;DHT22;2295;51.050;14.608;2023-06-04T04:06:26;3.60;99.90
4566;DHT22;2295;51.050;14.608;2023-06-04T04:08:54;3.70;99.90
4566;DHT22;2295;51.050;14.608;2023-06-04T04:11:23;3.90;99.90
4566;DHT22;2295;51.050;14.608;2023-06-04T04:13:52;4.10;99.90
4566;DHT22;2295;51.050;14.608;2023-06-04T04:16:20;4.20;99.90
4566;DHT22;2295;51.050;14.608;2023-06-04T04:18:49;4.40;99.90
4566;DHT22;2295;51.050;14.608;2023-06-04T04:21:18;4.50;99.90
4566;DHT22;2295;51.050;14.608;2023-06-04T04:23:49;4.70;99.90
4566;DHT22;2295;51.050;14.608;2023-06-04T04:26:18;5.00;99.90
4566;DHT22;2295;51.050;14.608;2023-06-04T04:28:46;5.20;99.90
4566;DHT22;2295;51.050;14.608;2023-06-04T04:31:15;5.30;99.90
4566;DHT22;2295;51.050;14.608;2023-06-04T04:33:44;5.50;99.90
4566;DHT22;2295;51.050;14.608;2023-06-04T04:36:13;5.70;99.90
4566;DHT22;2295;51.050;14.608;2023-06-04T04:38:43;5.90;99.90
4566;DHT22;2295;51.050;14.608;2023-06-04T04:41:11;6.10;99.90
4566;DHT22;2295;51.050;14.608;2023-06-04T04:43:40;6.30;99.90
4566;DHT22;2295;51.050;14.608;2023-06-04T04:46:08;6.60;99.90
4566;DHT22;2295;51.050;14.608;2023-06-04T04:48:36;6.90;99.90
4566;DHT22;2295;51.050;14.608;2023-06-04T04:51:07;7.20;99.90
4566;DHT22;2295;51.050;14.608;2023-06-04T04:53:35;7.60;99.90
4566;DHT22;2295;51.050;14.608;2023-06-04T04:56:05;8.00;99.90
4566;DHT22;2295;51.050;14.608;2023-06-04T04:58:34;8.30;99.90
4566;DHT22;2295;51.050;14.608;2023-06-04T05:01:02;8.70;99.90
4566;DHT22;2295;51.050;14.608;2023-06-04T05:03:30;9.10;99.90
4566;DHT22;2295;51.050;14.608;2023-06-04T05:05:59;9.90;99.90
4566;DHT22;2295;51.050;14.608;2023-06-04T05:08:27;11.10;99.90
4566;DHT22;2295;51.050;14.608;2023-06-04T05:10:55;12.40;99.90
4566;DHT22;2295;51.050;14.608;2023-06-04T05:13:25;13.50;99.70
4566;DHT22;2295;51.050;14.608;2023-06-04T05:15:53;14.60;94.50
4566;DHT22;2295;51.050;14.608;2023-06-04T05:18:22;15.50;90.30
4566;DHT22;2295;51.050;14.608;2023-06-04T05:20:56;16.30;82.00
4566;DHT22;2295;51.050;14.608;2023-06-04T05:23:24;17.00;67.60
4566;DHT22;2295;51.050;14.608;2023-06-04T05:25:53;17.30;63.70
4566;DHT22;2295;51.050;14.608;2023-06-04T05:28:22;17.70;65.20
4566;DHT22;2295;51.050;14.608;2023-06-04T05:30:53;18.10;61.60
4566;DHT22;2295;51.050;14.608;2023-06-04T05:33:26;18.80;59.60
4566;DHT22;2295;51.050;14.608;2023-06-04T05:35:54;19.60;54.90
4566;DHT22;2295;51.050;14.608;2023-06-04T05:38:25;20.10;52.10
4566;DHT22;2295;51.050;14.608;2023-06-04T05:40:54;20.60;49.70
4566;DHT22;2295;51.050;14.608;2023-06-04T05:43:23;21.00;48.10
4566;DHT22;2295;51.050;14.608;2023-06-04T05:45:52;21.40;47.20
4566;DHT22;2295;51.050;14.608;2023-06-04T05:48:21;21.70;46.30
4566;DHT22;2295;51.050;14.608;2023-06-04T05:50:49;21.80;45.70
4566;DHT22;2295;51.050;14.608;2023-06-04T05:53:17;21.60;48.30
4566;DHT22;2295;51.050;14.608;2023-06-04T05:55:46;21.60;47.00
4566;DHT22;2295;51.050;14.608;2023-06-04T05:58:14;22.00;45.80
4566;DHT22;2295;51.050;14.608;2023-06-04T06:00:42;22.60;43.60
4566;DHT22;2295;51.050;14.608;2023-06-04T06:03:13;22.90;43.60
4566;DHT22;2295;51.050;14.608;2023-06-04T06:05:43;23.00;43.60
4566;DHT22;2295;51.050;14.608;2023-06-04T06:08:13;23.40;43.00
4566;DHT22;2295;51.050;14.608;2023-06-04T06:10:42;22.90;41.10
4566;DHT22;2295;51.050;14.608;2023-06-04T06:13:10;23.10;42.40
4566;DHT22;2295;51.050;14.608;2023-06-04T06:15:38;23.30;42.70
4566;DHT22;2295;51.050;14.608;2023-06-04T06:18:07;23.20;42.90
4566;DHT22;2295;51.050;14.608;2023-06-04T06:20:37;23.20;42.20
4566;DHT22;2295;51.050;14.608;2023-06-04T06:23:06;23.80;41.30
4566;DHT22;2295;51.050;14.608;2023-06-04T06:25:37;23.90;39.90
4566;DHT22;2295;51.050;14.608;2023-06-04T06:28:07;23.60;39.00
4566;DHT22;2295;51.050;14.608;2023-06-04T06:30:35;23.20;39.00
4566;DHT22;2295;51.050;14.608;2023-06-04T06:33:03;22.70;39.90
4566;DHT22;2295;51.050;14.608;2023-06-04T06:35:36;22.40;39.80
4566;DHT22;2295;51.050;14.608;2023-06-04T06:38:05;21.80;39.00
4566;DHT22;2295;51.050;14.608;2023-06-04T06:40:33;21.40;40.60
4566;DHT22;2295;51.050;14.608;2023-06-04T06:43:01;21.50;41.80
4566;DHT22;2295;51.050;14.608;2023-06-04T06:45:30;21.70;41.70
4566;DHT22;2295;51.050;14.608;2023-06-04T06:47:58;22.00;41.40
4566;DHT22;2295;51.050;14.608;2023-06-04T06:50:26;22.00;40.70
4566;DHT22;2295;51.050;14.608;2023-06-04T06:52:56;22.20;39.40
4566;DHT22;2295;51.050;14.608;2023-06-04T06:55:24;22.90;40.50
4566;DHT22;2295;51.050;14.608;2023-06-04T06:57:52;22.60;38.40
4566;DHT22;2295;51.050;14.608;2023-06-04T07:00:23;22.30;38.80
4566;DHT22;2295;51.050;14.608;2023-06-04T07:02:52;22.00;39.70
4566;DHT22;2295;51.050;14.608;2023-06-04T07:05:20;21.50;41.50
4566;DHT22;2295;51.050;14.608;2023-06-04T07:07:49;21.40;42.80
4566;DHT22;2295;51.050;14.608;2023-06-04T07:10:18;21.50;43.10
4566;DHT22;2295;51.050;14.608;2023-06-04T07:12:46;21.90;40.80
4566;DHT22;2295;51.050;14.608;2023-06-04T07:15:15;21.80;41.20
4566;DHT22;2295;51.050;14.608;2023-06-04T07:17:43;21.70;41.50
4566;DHT22;2295;51.050;14.608;2023-06-04T07:20:11;21.70;41.80
4566;DHT22;2295;51.050;14.608;2023-06-04T07:22:42;21.60;41.60
4566;DHT22;2295;51.050;14.608;2023-06-04T07:25:11;22.00;41.40
4566;DHT22;2295;51.050;14.608;2023-06-04T07:27:40;22.00;41.80
4566;DHT22;2295;51.050;14.608;2023-06-04T07:30:09;22.00;41.10
4566;DHT22;2295;51.050;14.608;2023-06-04T07:32:38;22.70;42.90
4566;DHT22;2295;51.050;14.608;2023-06-04T07:35:07;23.20;40.00
4566;DHT22;2295;51.050;14.608;2023-06-04T07:37:36;22.90;40.50
4566;DHT22;2295;51.050;14.608;2023-06-04T07:40:05;22.80;42.10
4566;DHT22;2295;51.050;14.608;2023-06-04T07:42:33;22.80;40.90
4566;DHT22;2295;51.050;14.608;2023-06-04T07:45:03;23.40;42.60
4566;DHT22;2295;51.050;14.608;2023-06-04T07:47:32;23.80;41.00
4566;DHT22;2295;51.050;14.608;2023-06-04T07:50:00;24.40;40.10
4566;DHT22;2295;51.050;14.608;2023-06-04T07:52:29;23.90;39.80
4566;DHT22;2295;51.050;14.608;2023-06-04T07:54:58;23.80;40.50
4566;DHT22;2295;51.050;14.608;2023-06-04T07:57:29;23.10;40.20
4566;DHT22;2295;51.050;14.608;2023-06-04T07:59:58;23.10;41.50
4566;DHT22;2295;51.050;14.608;2023-06-04T08:02:30;22.60;41.40
4566;DHT22;2295;51.050;14.608;2023-06-04T08:04:58;22.10;42.20
4566;DHT22;2295;51.050;14.608;2023-06-04T08:07:26;22.60;43.00
4566;DHT22;2295;51.050;14.608;2023-06-04T08:09:55;22.70;42.20
4566;DHT22;2295;51.050;14.608;2023-06-04T08:12:23;22.80;42.70
4566;DHT22;2295;51.050;14.608;2023-06-04T08:14:51;22.80;40.50
4566;DHT22;2295;51.050;14.608;2023-06-04T08:17:23;22.50;41.30
4566;DHT22;2295;51.050;14.608;2023-06-04T08:19:53;22.10;42.30
4566;DHT22;2295;51.050;14.608;2023-06-04T08:22:22;22.40;42.70
4566;DHT22;2295;51.050;14.608;2023-06-04T08:24:50;23.00;41.80
4566;DHT22;2295;51.050;14.608;2023-06-04T08:27:18;24.00;40.70
4566;DHT22;2295;51.050;14.608;2023-06-04T08:29:46;24.00;42.30
4566;DHT22;2295;51.050;14.608;2023-06-04T08:32:18;24.50;39.80
4566;DHT22;2295;51.050;14.608;2023-06-04T08:34:49;24.60;38.90
4566;DHT22;2295;51.050;14.608;2023-06-04T08:37:19;24.30;38.50
4566;DHT22;2295;51.050;14.608;2023-06-04T08:39:47;23.20;40.00
4566;DHT22;2295;51.050;14.608;2023-06-04T08:42:21;23.40;40.10
4566;DHT22;2295;51.050;14.608;2023-06-04T08:44:50;23.90;42.70
4566;DHT22;2295;51.050;14.608;2023-06-04T08:47:20;24.30;36.10
4566;DHT22;2295;51.050;14.608;2023-06-04T08:49:50;24.00;37.30
4566;DHT22;2295;51.050;14.608;2023-06-04T08:52:24;24.20;37.80
4566;DHT22;2295;51.050;14.608;2023-06-04T08:54:54;23.70;36.60
4566;DHT22;2295;51.050;14.608;2023-06-04T08:57:23;22.80;36.50
4566;DHT22;2295;51.050;14.608;2023-06-04T08:59:52;22.70;38.50
4566;DHT22;2295;51.050;14.608;2023-06-04T09:02:21;22.80;37.50
4566;DHT22;2295;51.050;14.608;2023-06-04T09:04:49;23.20;37.40
4566;DHT22;2295;51.050;14.608;2023-06-04T09:07:18;23.70;37.60
4566;DHT22;2295;51.050;14.608;2023-06-04T09:09:48;24.20;37.40
4566;DHT22;2295;51.050;14.608;2023-06-04T09:12:40;24.80;36.50
4566;DHT22;2295;51.050;14.608;2023-06-04T09:15:10;25.00;34.60
4566;DHT22;2295;51.050;14.608;2023-06-04T09:17:38;24.70;35.30
4566;DHT22;2295;51.050;14.608;2023-06-04T09:20:07;24.50;37.30
4566;DHT22;2295;51.050;14.608;2023-06-04T09:22:37;25.00;35.20
4566;DHT22;2295;51.050;14.608;2023-06-04T09:25:19;24.70;33.50
4566;DHT22;2295;51.050;14.608;2023-06-04T09:27:48;24.00;35.20
4566;DHT22;2295;51.050;14.608;2023-06-04T09:30:17;24.10;33.50
4566;DHT22;2295;51.050;14.608;2023-06-04T09:32:45;24.20;33.10
4566;DHT22;2295;51.050;14.608;2023-06-04T09:35:15;23.60;33.70
4566;DHT22;2295;51.050;14.608;2023-06-04T09:37:57;23.70;36.00
4566;DHT22;2295;51.050;14.608;2023-06-04T09:40:35;24.10;34.80
4566;DHT22;2295;51.050;14.608;2023-06-04T09:43:06;24.00;34.40
4566;DHT22;2295;51.050;14.608;2023-06-04T09:45:35;24.50;35.40
4566;DHT22;2295;51.050;14.608;2023-06-04T09:48:03;24.00;33.80
4566;DHT22;2295;51.050;14.608;2023-06-04T09:50:36;23.60;34.60
4566;DHT22;2295;51.050;14.608;2023-06-04T09:53:13;24.00;35.70
4566;DHT22;2295;51.050;14.608;2023-06-04T09:55:43;24.20;33.00
4566;DHT22;2295;51.050;14.608;2023-06-04T09:58:13;24.40;32.30
4566;DHT22;2295;51.050;14.608;2023-06-04T10:00:44;24.70;36.10
4566;DHT22;2295;51.050;14.608;2023-06-04T10:03:16;24.90;33.30
4566;DHT22;2295;51.050;14.608;2023-06-04T10:05:51;25.10;33.60
4566;DHT22;2295;51.050;14.608;2023-06-04T10:08:22;24.90;37.20
4566;DHT22;2295;51.050;14.608;2023-06-04T10:10:52;24.90;33.60
4566;DHT22;2295;51.050;14.608;2023-06-04T10:13:24;25.70;40.80
4566;DHT22;2295;51.050;14.608;2023-06-04T10:15:57;25.60;32.70
4566;DHT22;2295;51.050;14.608;2023-06-04T10:18:27;25.10;33.90
4566;DHT22;2295;51.050;14.608;2023-06-04T10:20:59;24.70;33.50
4566;DHT22;2295;51.050;14.608;2023-06-04T10:23:28;25.30;33.80
4566;DHT22;2295;51.050;14.608;2023-06-04T10:25:59;25.10;32.60
4566;DHT22;2295;51.050;14.608;2023-06-04T10:28:28;25.60;34.20
4566;DHT22;2295;51.050;14.608;2023-06-04T10:30:59;26.30;33.10
4566;DHT22;2295;51.050;14.608;2023-06-04T10:33:28;26.20;32.40
4566;DHT22;2295;51.050;14.608;2023-06-04T10:35:56;25.60;32.90
4566;DHT22;2295;51.050;14.608;2023-06-04T10:38:24;25.90;34.50
4566;DHT22;2295;51.050;14.608;2023-06-04T10:40:53;25.90;32.40
4566;DHT22;2295;51.050;14.608;2023-06-04T10:43:29;25.80;33.10
4566;DHT22;2295;51.050;14.608;2023-06-04T10:45:58;26.30;36.90
4566;DHT22;2295;51.050;14.608;2023-06-04T10:48:45;26.30;31.00
4566;DHT22;2295;51.050;14.608;2023-06-04T10:51:14;25.70;32.10
4566;DHT22;2295;51.050;14.608;2023-06-04T10:53:42;25.40;33.40
4566;DHT22;2295;51.050;14.608;2023-06-04T10:56:11;25.20;36.10
4566;DHT22;2295;51.050;14.608;2023-06-04T10:58:41;25.50;32.90
4566;DHT22;2295;51.050;14.608;2023-06-04T11:01:09;25.00;34.50
4566;DHT22;2295;51.050;14.608;2023-06-04T11:03:38;25.10;33.20
4566;DHT22;2295;51.050;14.608;2023-06-04T11:06:16;25.40;33.20
4566;DHT22;2295;51.050;14.608;2023-06-04T11:08:44;25.30;33.40
4566;DHT22;2295;51.050;14.608;2023-06-04T11:11:13;24.90;35.70
4566;DHT22;2295;51.050;14.608;2023-06-04T11:13:43;25.30;33.80
4566;DHT22;2295;51.050;14.608;2023-06-04T11:16:15;25.50;33.90
4566;DHT22;2295;51.050;14.608;2023-06-04T11:18:54;25.80;32.10
4566;DHT22;2295;51.050;14.608;2023-06-04T11:21:24;26.20;31.80
4566;DHT22;2295;51.050;14.608;2023-06-04T11:23:56;25.50;32.20
4566;DHT22;2295;51.050;14.608;2023-06-04T11:26:30;25.40;31.90
4566;DHT22;2295;51.050;14.608;2023-06-04T11:29:01;26.00;32.30
4566;DHT22;2295;51.050;14.608;2023-06-04T11:31:40;25.40;30.90
4566;DHT22;2295;51.050;14.608;2023-06-04T11:34:10;24.50;31.70
4566;DHT22;2295;51.050;14.608;2023-06-04T11:36:38;24.30;33.50
4566;DHT22;2295;51.050;14.608;2023-06-04T11:39:07;24.00;34.20
4566;DHT22;2295;51.050;14.608;2023-06-04T11:41:35;24.60;33.50
4566;DHT22;2295;51.050;14.608;2023-06-04T11:44:07;25.20;31.70
4566;DHT22;2295;51.050;14.608;2023-06-04T11:46:40;25.20;32.10
4566;DHT22;2295;51.050;14.608;2023-06-04T11:49:12;25.90;30.60
4566;DHT22;2295;51.050;14.608;2023-06-04T11:51:46;26.10;30.70
4566;DHT22;2295;51.050;14.608;2023-06-04T11:54:18;25.50;32.00
4566;DHT22;2295;51.050;14.608;2023-06-04T11:56:49;25.40;32.80
4566;DHT22;2295;51.050;14.608;2023-06-04T11:59:20;25.60;32.70
4566;DHT22;2295;51.050;14.608;2023-06-04T12:01:48;26.00;31.30
4566;DHT22;2295;51.050;14.608;2023-06-04T12:04:18;26.20;31.70
4566;DHT22;2295;51.050;14.608;2023-06-04T12:06:51;26.20;32.90
4566;DHT22;2295;51.050;14.608;2023-06-04T12:09:21;26.50;36.10
4566;DHT22;2295;51.050;14.608;2023-06-04T12:11:49;26.80;30.10
4566;DHT22;2295;51.050;14.608;2023-06-04T12:14:19;26.90;31.00
4566;DHT22;2295;51.050;14.608;2023-06-04T12:16:55;26.40;30.00
4566;DHT22;2295;51.050;14.608;2023-06-04T12:19:24;25.70;29.20
4566;DHT22;2295;51.050;14.608;2023-06-04T12:21:59;25.80;28.90
4566;DHT22;2295;51.050;14.608;2023-06-04T12:24:29;26.20;29.90
4566;DHT22;2295;51.050;14.608;2023-06-04T12:27:05;26.20;29.00
4566;DHT22;2295;51.050;14.608;2023-06-04T12:29:36;26.20;29.90
4566;DHT22;2295;51.050;14.608;2023-06-04T12:32:06;25.90;29.20
4566;DHT22;2295;51.050;14.608;2023-06-04T12:34:39;25.90;29.10
4566;DHT22;2295;51.050;14.608;2023-06-04T12:37:08;25.70;28.80
4566;DHT22;2295;51.050;14.608;2023-06-04T12:39:36;26.20;36.90
4566;DHT22;2295;51.050;14.608;2023-06-04T12:42:06;27.10;31.30
4566;DHT22;2295;51.050;14.608;2023-06-04T12:44:37;26.70;29.20
4566;DHT22;2295;51.050;14.608;2023-06-04T12:47:09;26.20;29.20
4566;DHT22;2295;51.050;14.608;2023-06-04T12:49:38;25.90;29.10
4566;DHT22;2295;51.050;14.608;2023-06-04T12:52:07;26.30;28.70
4566;DHT22;2295;51.050;14.608;2023-06-04T12:54:42;26.50;29.50
4566;DHT22;2295;51.050;14.608;2023-06-04T12:57:10;27.00;30.50
4566;DHT22;2295;51.050;14.608;2023-06-04T12:59:40;27.60;31.70
4566;DHT22;2295;51.050;14.608;2023-06-04T13:02:08;27.40;28.80
4566;DHT22;2295;51.050;14.608;2023-06-04T13:04:36;26.60;31.30
4566;DHT22;2295;51.050;14.608;2023-06-04T13:07:05;27.10;33.40
4566;DHT22;2295;51.050;14.608;2023-06-04T13:09:33;27.50;30.90
4566;DHT22;2295;51.050;14.608;2023-06-04T13:12:02;27.80;29.70
4566;DHT22;2295;51.050;14.608;2023-06-04T13:14:35;27.90;32.10
4566;DHT22;2295;51.050;14.608;2023-06-04T13:17:04;27.90;30.60
4566;DHT22;2295;51.050;14.608;2023-06-04T13:19:48;28.20;31.80
4566;DHT22;2295;51.050;14.608;2023-06-04T13:22:16;27.70;28.00
4566;DHT22;2295;51.050;14.608;2023-06-04T13:24:44;26.60;29.10
4566;DHT22;2295;51.050;14.608;2023-06-04T13:27:13;26.20;29.70
4566;DHT22;2295;51.050;14.608;2023-06-04T13:29:41;25.60;31.50
4566;DHT22;2295;51.050;14.608;2023-06-04T13:32:12;25.80;31.60
4566;DHT22;2295;51.050;14.608;2023-06-04T13:34:40;26.10;31.50
4566;DHT22;2295;51.050;14.608;2023-06-04T13:37:09;26.60;29.90
4566;DHT22;2295;51.050;14.608;2023-06-04T13:39:39;26.90;32.60
4566;DHT22;2295;51.050;14.608;2023-06-04T13:42:07;27.40;33.00
4566;DHT22;2295;51.050;14.608;2023-06-04T13:44:35;26.90;28.10
4566;DHT22;2295;51.050;14.608;2023-06-04T13:47:04;26.40;30.80
4566;DHT22;2295;51.050;14.608;2023-06-04T13:49:34;26.90;32.10
4566;DHT22;2295;51.050;14.608;2023-06-04T13:52:02;26.40;29.30
4566;DHT22;2295;51.050;14.608;2023-06-04T13:54:31;26.50;30.30
4566;DHT22;2295;51.050;14.608;2023-06-04T13:57:01;26.30;30.30
4566;DHT22;2295;51.050;14.608;2023-06-04T13:59:30;25.70;31.70
4566;DHT22;2295;51.050;14.608;2023-06-04T14:02:00;25.20;30.90
4566;DHT22;2295;51.050;14.608;2023-06-04T14:04:28;25.20;32.40
4566;DHT22;2295;51.050;14.608;2023-06-04T14:06:58;25.40;31.20
4566;DHT22;2295;51.050;14.608;2023-06-04T14:09:26;25.80;31.70
4566;DHT22;2295;51.050;14.608;2023-06-04T14:11:54;26.50;33.60
4566;DHT22;2295;51.050;14.608;2023-06-04T14:14:23;27.10;32.10
4566;DHT22;2295;51.050;14.608;2023-06-04T14:16:51;27.40;30.50
4566;DHT22;2295;51.050;14.608;2023-06-04T14:19:24;27.50;31.20
4566;DHT22;2295;51.050;14.608;2023-06-04T14:21:52;27.60;28.90
4566;DHT22;2295;51.050;14.608;2023-06-04T14:24:22;26.90;31.60
4566;DHT22;2295;51.050;14.608;2023-06-04T14:26:50;27.20;31.30
4566;DHT22;2295;51.050;14.608;2023-06-04T14:29:19;27.00;28.70
4566;DHT22;2295;51.050;14.608;2023-06-04T14:31:47;26.10;29.40
4566;DHT22;2295;51.050;14.608;2023-06-04T14:34:15;26.00;30.60
4566;DHT22;2295;51.050;14.608;2023-06-04T14:36:43;25.50;31.60
4566;DHT22;2295;51.050;14.608;2023-06-04T14:39:12;25.50;32.00
4566;DHT22;2295;51.050;14.608;2023-06-04T14:41:42;25.40;32.20
4566;DHT22;2295;51.050;14.608;2023-06-04T14:44:10;25.70;32.40
4566;DHT22;2295;51.050;14.608;2023-06-04T14:46:39;25.60;32.00
4566;DHT22;2295;51.050;14.608;2023-06-04T14:49:08;25.40;31.20
4566;DHT22;2295;51.050;14.608;2023-06-04T14:51:36;24.90;31.20
4566;DHT22;2295;51.050;14.608;2023-06-04T14:54:05;24.40;31.90
4566;DHT22;2295;51.050;14.608;2023-06-04T14:56:33;24.70;33.30
4566;DHT22;2295;51.050;14.608;2023-06-04T14:59:03;24.80;32.00
4566;DHT22;2295;51.050;14.608;2023-06-04T15:01:38;24.60;31.60
4566;DHT22;2295;51.050;14.608;2023-06-04T15:04:10;24.60;32.10
4566;DHT22;2295;51.050;14.608;2023-06-04T15:06:38;25.20;31.60
4566;DHT22;2295;51.050;14.608;2023-06-04T15:09:07;25.40;31.20
4566;DHT22;2295;51.050;14.608;2023-06-04T15:11:35;25.70;32.80
4566;DHT22;2295;51.050;14.608;2023-06-04T15:14:05;26.00;31.50
4566;DHT22;2295;51.050;14.608;2023-06-04T15:16:33;26.50;30.80
4566;DHT22;2295;51.050;14.608;2023-06-04T15:19:01;26.10;30.70
4566;DHT22;2295;51.050;14.608;2023-06-04T15:21:32;25.80;31.10
4566;DHT22;2295;51.050;14.608;2023-06-04T15:24:01;25.90;31.50
4566;DHT22;2295;51.050;14.608;2023-06-04T15:26:29;26.50;31.10
4566;DHT22;2295;51.050;14.608;2023-06-04T15:28:57;26.60;30.40
4566;DHT22;2295;51.050;14.608;2023-06-04T15:31:27;26.40;29.80
4566;DHT22;2295;51.050;14.608;2023-06-04T15:33:55;26.30;29.40
4566;DHT22;2295;51.050;14.608;2023-06-04T15:36:24;26.50;28.50
4566;DHT22;2295;51.050;14.608;2023-06-04T15:38:52;26.70;29.90
4566;DHT22;2295;51.050;14.608;2023-06-04T15:41:20;26.00;30.30
4566;DHT22;2295;51.050;14.608;2023-06-04T15:43:50;25.90;30.00
4566;DHT22;2295;51.050;14.608;2023-06-04T15:46:19;26.50;30.60
4566;DHT22;2295;51.050;14.608;2023-06-04T15:48:52;26.60;30.60
4566;DHT22;2295;51.050;14.608;2023-06-04T15:51:20;26.50;29.60
4566;DHT22;2295;51.050;14.608;2023-06-04T15:53:48;26.60;29.80
4566;DHT22;2295;51.050;14.608;2023-06-04T15:56:16;27.10;30.20
4566;DHT22;2295;51.050;14.608;2023-06-04T15:58:45;26.30;29.00
4566;DHT22;2295;51.050;14.608;2023-06-04T16:01:14;26.30;29.40
4566;DHT22;2295;51.050;14.608;2023-06-04T16:03:42;26.00;30.70
4566;DHT22;2295;51.050;14.608;2023-06-04T16:06:12;26.20;30.10
4566;DHT22;2295;51.050;14.608;2023-06-04T16:08:40;26.20;30.00